Volcan De Teneguia — ECLA — position and weather

sailwx.info

Track history (hours):
 
Tides and Currents Weather Stations Pressure Air Temp Water Temp Dewpoint Dewpoint Depression Visibility Wind Speed Wind Dir Waves Ship Positions

Volcan De Teneguia

Last reported at 2016-Feb-05 12:33 UTC. Time now 2016-Feb-10 00:38 UTC.
Position N 28°09' W 015°25'.

Length 145 m; draft 5.2 m.

Type: Ship (hazmat cat A). MMSI: 225317000.

Date/timePositionNaut miles runAvg speedWind from/ knotsBaromVisibWave heightAir tempDewpointWater temp
2016-Feb-05 12:33N 28°09' W 015°25'0 0.0
2016-Feb-05 11:33N 28°09' W 015°25'0 0.0
2016-Feb-05 10:33N 28°09' W 015°25'64712.7
2016-Feb-03 07:28N 36°16' W 007°02'5 0.1
2016-Feb-01 06:33N 36°21' W 007°05'1414.0
2016-Feb-01 05:33N 36°11' W 007°16'43413.1
2016-Jan-30 20:28N 30°59' W 013°18'15911.5
2016-Jan-30 06:33N 29°04' W 015°26'1111.2
2016-Jan-30 05:33N 28°56' W 015°35'1111.4
2016-Jan-30 04:33N 28°48' W 015°44'1111.4
2016-Jan-30 03:33N 28°40' W 015°54'1111.4
2016-Jan-30 02:33N 28°32' W 016°03'10 9.9
2016-Jan-30 01:33N 28°29' W 016°14'0 0.0
2016-Jan-29 20:18N 28°29' W 016°14'3 3.6
2016-Jan-29 19:33N 28°27' W 016°11'1414.5
2016-Jan-29 18:33N 28°23' W 015°56'1413.9
2016-Jan-29 17:33N 28°18' W 015°41'1414.3
2016-Jan-29 16:33N 28°13' W 015°26'4 3.9
2016-Jan-29 15:31N 28°09' W 015°25'0 0.0
2016-Jan-29 14:31N 28°09' W 015°25'0 0.0
2016-Jan-29 13:28N 28°09' W 015°25'0 0.0
2016-Jan-29 12:19N 28°09' W 015°25'0 0.0
2016-Jan-29 11:31N 28°09' W 015°25'0 0.0
2016-Jan-29 10:22N 28°09' W 015°25'0 0.0
2016-Jan-29 09:25N 28°09' W 015°25'0 0.0
2016-Jan-29 08:25N 28°09' W 015°25'0 0.0
2016-Jan-29 07:25N 28°09' W 015°25'2 2.5
2016-Jan-29 06:34N 28°07' W 015°23'1313.3
2016-Jan-29 05:34N 28°17' W 015°13'1313.4
2016-Jan-29 04:34N 28°28' W 015°04'1413.4
2016-Jan-29 03:33N 28°38' W 014°54'7 6.5
2016-Jan-29 02:32N 28°43' W 014°50'  
Track history (hours):
 
Tides and Currents Weather Stations Pressure Air Temp Water Temp Dewpoint Dewpoint Depression Visibility Wind Speed Wind Dir Waves Ship Positions

Volcan De Teneguia

Last reported at 2016-Feb-05 12:33 UTC. Time now 2016-Feb-10 00:38 UTC.
Position N 28°09' W 015°25'.

Length 145 m; draft 5.2 m.

Type: Ship (hazmat cat A). MMSI: 225317000.

Date/timePositionNaut miles runAvg speedWind from/ knotsBaromVisibWave heightAir tempDewpointWater temp
2016-Feb-05 12:33N 28°09' W 015°25'0 0.0
2016-Feb-05 11:33N 28°09' W 015°25'0 0.0
2016-Feb-05 10:33N 28°09' W 015°25'64712.7
2016-Feb-03 07:28N 36°16' W 007°02'5 0.1
2016-Feb-01 06:33N 36°21' W 007°05'1414.0
2016-Feb-01 05:33N 36°11' W 007°16'43413.1
2016-Jan-30 20:28N 30°59' W 013°18'15911.5
2016-Jan-30 06:33N 29°04' W 015°26'1111.2
2016-Jan-30 05:33N 28°56' W 015°35'1111.4
2016-Jan-30 04:33N 28°48' W 015°44'1111.4
2016-Jan-30 03:33N 28°40' W 015°54'1111.4
2016-Jan-30 02:33N 28°32' W 016°03'10 9.9
2016-Jan-30 01:33N 28°29' W 016°14'0 0.0
2016-Jan-29 20:18N 28°29' W 016°14'3 3.6
2016-Jan-29 19:33N 28°27' W 016°11'1414.5
2016-Jan-29 18:33N 28°23' W 015°56'1413.9
2016-Jan-29 17:33N 28°18' W 015°41'1414.3
2016-Jan-29 16:33N 28°13' W 015°26'4 3.9
2016-Jan-29 15:31N 28°09' W 015°25'0 0.0
2016-Jan-29 14:31N 28°09' W 015°25'0 0.0
2016-Jan-29 13:28N 28°09' W 015°25'0 0.0
2016-Jan-29 12:19N 28°09' W 015°25'0 0.0
2016-Jan-29 11:31N 28°09' W 015°25'0 0.0
2016-Jan-29 10:22N 28°09' W 015°25'0 0.0
2016-Jan-29 09:25N 28°09' W 015°25'0 0.0
2016-Jan-29 08:25N 28°09' W 015°25'0 0.0
2016-Jan-29 07:25N 28°09' W 015°25'2 2.5
2016-Jan-29 06:34N 28°07' W 015°23'1313.3
2016-Jan-29 05:34N 28°17' W 015°13'1313.4
2016-Jan-29 04:34N 28°28' W 015°04'1413.4
2016-Jan-29 03:33N 28°38' W 014°54'7 6.5
2016-Jan-29 02:32N 28°43' W 014°50'  

Dump ship's entire track history